Sovereign — 9HUE9 — position and weather

sailwx.info

Track history (hours):
 
Tides and Currents Weather Stations Pressure Air Temp Water Temp Dewpoint Dewpoint Depression Visibility Wind Speed Wind Dir Waves Ship Positions

Sovereign

Last reported at 2016-Feb-06 21:07 UTC. Time now 2016-Feb-08 02:03 UTC.
Position S 24°02' W 045°52'.

Length 268 m.

Type: Passenger vessel. MMSI: 249539000.

Date/timePositionNaut miles runAvg speedWind from/ knotsBaromVisibWave heightAir tempDewpointWater temp
2016-Feb-06 21:07S 24°02' W 045°52'1017.4
2016-Feb-06 20:32S 24°03' W 046°03'1616.0
2016-Feb-06 19:34S 24°02' W 046°20'6 5.4
2016-Feb-06 18:32S 23°57' W 046°19'0 0.0
2016-Feb-06 16:08S 23°57' W 046°19'0 0.0
2016-Feb-06 13:32S 23°57' W 046°19'0 0.0
2016-Feb-06 12:20S 23°57' W 046°19'0 0.0
2016-Feb-06 08:26S 23°57' W 046°19'3 3.1
2016-Feb-06 07:33S 23°60' W 046°19'7 6.6
2016-Feb-06 06:33S 24°04' W 046°14'1111.3
2016-Feb-06 05:33S 24°06' W 046°01'1 0.8
2016-Feb-06 04:32S 24°07' W 046°01'1 0.7
2016-Feb-06 03:33S 24°08' W 046°01'5 5.1
2016-Feb-06 02:31S 24°11' W 045°57'14 7.3
2016-Feb-06 00:33S 24°23' W 045°49'7 6.8
2016-Feb-05 23:33S 24°22' W 045°41'8 7.4
2016-Feb-05 22:32S 24°19' W 045°34'8 7.6
2016-Feb-05 21:28S 24°16' W 045°25'17 7.7
2016-Feb-05 19:19S 24°10' W 045°09'8 7.8
2016-Feb-05 18:14S 24°07' W 044°60'30 8.0
2016-Feb-05 14:32S 23°56' W 044°30'151 9.5
2016-Feb-04 22:34S 23°02' W 041°56'232 4.6
2016-Feb-02 20:26S 24°03' W 046°00'1315.3
2016-Feb-02 19:33S 24°04' W 046°15'6 6.1
2016-Feb-02 18:33S 23°59' W 046°17'2 1.5
2016-Feb-02 17:24S 23°57' W 046°19'0 0.0
2016-Feb-02 16:06S 23°57' W 046°19'0 0.0
2016-Feb-02 15:30S 23°57' W 046°19'0 0.0
2016-Feb-02 14:18S 23°57' W 046°19'0 0.0
2016-Feb-02 13:24S 23°57' W 046°19'0 0.0
2016-Feb-02 12:30S 23°57' W 046°19'0 0.0
2016-Feb-02 11:30S 23°57' W 046°19'0 0.0
2016-Feb-02 10:33S 23°57' W 046°19'0 0.0
2016-Feb-02 09:33S 23°57' W 046°19'3 3.0
2016-Feb-02 08:34S 23°60' W 046°20'8 7.5
2016-Feb-02 07:34S 24°05' W 046°14'1110.6
2016-Feb-02 06:33S 24°07' W 046°02'1 0.6
2016-Feb-02 05:33S 24°08' W 046°02'0 0.3
2016-Feb-02 04:33S 24°08' W 046°01'0 0.2
2016-Feb-02 03:33S 24°08' W 046°01'1 1.4
2016-Feb-02 02:33S 24°07' W 046°00'8 8.0
2016-Feb-02 01:31S 24°14' W 045°55'8 8.1
2016-Feb-02 00:33S 24°20' W 045°50'8 7.6
2016-Feb-01 23:33S 24°22' W 045°42'7 7.2
2016-Feb-01 22:33S 24°19' W 045°35'8 7.6
2016-Feb-01 21:33S 24°17' W 045°27'8 7.6
2016-Feb-01 20:33S 24°14' W 045°19'7 7.3
2016-Feb-01 19:33S 24°11' W 045°12'8 7.7
2016-Feb-01 18:33S 24°09' W 045°04'8 7.9
2016-Feb-01 17:31S 24°06' W 044°55'8 8.0
2016-Feb-01 16:33S 24°03' W 044°47'8 8.2
2016-Feb-01 15:33S 23°60' W 044°39'8 8.4
2016-Feb-01 14:33S 23°57' W 044°31'125 9.5
2016-Feb-01 01:28S 23°12' W 042°24'1310.4
2016-Feb-01 00:12S 23°08' W 042°10'11 9.8
2016-Jan-31 23:03S 23°04' W 041°59'7 9.6
2016-Jan-31 22:19S 22°59' W 041°53'37 1.8
2016-Jan-31 02:05S 23°15' W 042°30'15 9.9
2016-Jan-31 00:33S 23°15' W 042°46'140 5.5
2016-Jan-29 23:13S 24°01' W 045°10'1415.1
2016-Jan-29 22:18S 24°00' W 045°25'1215.3
2016-Jan-29 21:33S 23°60' W 045°38'1515.3
2016-Jan-29 20:34S 24°02' W 045°54'1515.3
2016-Jan-29 19:33S 24°04' W 046°11'8 7.7
2016-Jan-29 18:33S 23°60' W 046°18'2 1.7
2016-Jan-29 17:33S 23°58' W 046°18'0 0.0
2016-Jan-29 16:33S 23°58' W 046°18'0 0.0
2016-Jan-29 15:34S 23°58' W 046°18'0 0.0
2016-Jan-29 14:33S 23°58' W 046°18'0 0.0
2016-Jan-29 13:15S 23°58' W 046°18'0 0.0
2016-Jan-29 12:15S 23°58' W 046°18'0 0.0
2016-Jan-29 11:21S 23°58' W 046°18'0 0.0
2016-Jan-29 10:10S 23°58' W 046°18'0 0.0
2016-Jan-29 09:09S 23°58' W 046°18'0 0.0
2016-Jan-29 08:34S 23°58' W 046°18'3 2.9
2016-Jan-29 07:33S 24°00' W 046°20'9 9.1
2016-Jan-29 06:33S 24°05' W 046°12'10 9.1
2016-Jan-29 05:29S 24°06' W 046°01'0 0.5
2016-Jan-29 04:33S 24°06' W 046°01'0 0.4
2016-Jan-29 03:33S 24°06' W 046°00'3 2.9
2016-Jan-29 02:33S 24°09' W 045°59'10 9.3
2016-Jan-29 01:30S 24°18' W 045°54'  
Track history (hours):
 
Tides and Currents Weather Stations Pressure Air Temp Water Temp Dewpoint Dewpoint Depression Visibility Wind Speed Wind Dir Waves Ship Positions

Sovereign

Last reported at 2016-Feb-06 21:07 UTC. Time now 2016-Feb-08 02:03 UTC.
Position S 24°02' W 045°52'.

Length 268 m.

Type: Passenger vessel. MMSI: 249539000.

Date/timePositionNaut miles runAvg speedWind from/ knotsBaromVisibWave heightAir tempDewpointWater temp
2016-Feb-06 21:07S 24°02' W 045°52'1017.4
2016-Feb-06 20:32S 24°03' W 046°03'1616.0
2016-Feb-06 19:34S 24°02' W 046°20'6 5.4
2016-Feb-06 18:32S 23°57' W 046°19'0 0.0
2016-Feb-06 16:08S 23°57' W 046°19'0 0.0
2016-Feb-06 13:32S 23°57' W 046°19'0 0.0
2016-Feb-06 12:20S 23°57' W 046°19'0 0.0
2016-Feb-06 08:26S 23°57' W 046°19'3 3.1
2016-Feb-06 07:33S 23°60' W 046°19'7 6.6
2016-Feb-06 06:33S 24°04' W 046°14'1111.3
2016-Feb-06 05:33S 24°06' W 046°01'1 0.8
2016-Feb-06 04:32S 24°07' W 046°01'1 0.7
2016-Feb-06 03:33S 24°08' W 046°01'5 5.1
2016-Feb-06 02:31S 24°11' W 045°57'14 7.3
2016-Feb-06 00:33S 24°23' W 045°49'7 6.8
2016-Feb-05 23:33S 24°22' W 045°41'8 7.4
2016-Feb-05 22:32S 24°19' W 045°34'8 7.6
2016-Feb-05 21:28S 24°16' W 045°25'17 7.7
2016-Feb-05 19:19S 24°10' W 045°09'8 7.8
2016-Feb-05 18:14S 24°07' W 044°60'30 8.0
2016-Feb-05 14:32S 23°56' W 044°30'151 9.5
2016-Feb-04 22:34S 23°02' W 041°56'232 4.6
2016-Feb-02 20:26S 24°03' W 046°00'1315.3
2016-Feb-02 19:33S 24°04' W 046°15'6 6.1
2016-Feb-02 18:33S 23°59' W 046°17'2 1.5
2016-Feb-02 17:24S 23°57' W 046°19'0 0.0
2016-Feb-02 16:06S 23°57' W 046°19'0 0.0
2016-Feb-02 15:30S 23°57' W 046°19'0 0.0
2016-Feb-02 14:18S 23°57' W 046°19'0 0.0
2016-Feb-02 13:24S 23°57' W 046°19'0 0.0
2016-Feb-02 12:30S 23°57' W 046°19'0 0.0
2016-Feb-02 11:30S 23°57' W 046°19'0 0.0
2016-Feb-02 10:33S 23°57' W 046°19'0 0.0
2016-Feb-02 09:33S 23°57' W 046°19'3 3.0
2016-Feb-02 08:34S 23°60' W 046°20'8 7.5
2016-Feb-02 07:34S 24°05' W 046°14'1110.6
2016-Feb-02 06:33S 24°07' W 046°02'1 0.6
2016-Feb-02 05:33S 24°08' W 046°02'0 0.3
2016-Feb-02 04:33S 24°08' W 046°01'0 0.2
2016-Feb-02 03:33S 24°08' W 046°01'1 1.4
2016-Feb-02 02:33S 24°07' W 046°00'8 8.0
2016-Feb-02 01:31S 24°14' W 045°55'8 8.1
2016-Feb-02 00:33S 24°20' W 045°50'8 7.6
2016-Feb-01 23:33S 24°22' W 045°42'7 7.2
2016-Feb-01 22:33S 24°19' W 045°35'8 7.6
2016-Feb-01 21:33S 24°17' W 045°27'8 7.6
2016-Feb-01 20:33S 24°14' W 045°19'7 7.3
2016-Feb-01 19:33S 24°11' W 045°12'8 7.7
2016-Feb-01 18:33S 24°09' W 045°04'8 7.9
2016-Feb-01 17:31S 24°06' W 044°55'8 8.0
2016-Feb-01 16:33S 24°03' W 044°47'8 8.2
2016-Feb-01 15:33S 23°60' W 044°39'8 8.4
2016-Feb-01 14:33S 23°57' W 044°31'125 9.5
2016-Feb-01 01:28S 23°12' W 042°24'1310.4
2016-Feb-01 00:12S 23°08' W 042°10'11 9.8
2016-Jan-31 23:03S 23°04' W 041°59'7 9.6
2016-Jan-31 22:19S 22°59' W 041°53'37 1.8
2016-Jan-31 02:05S 23°15' W 042°30'15 9.9
2016-Jan-31 00:33S 23°15' W 042°46'140 5.5
2016-Jan-29 23:13S 24°01' W 045°10'1415.1
2016-Jan-29 22:18S 24°00' W 045°25'1215.3
2016-Jan-29 21:33S 23°60' W 045°38'1515.3
2016-Jan-29 20:34S 24°02' W 045°54'1515.3
2016-Jan-29 19:33S 24°04' W 046°11'8 7.7
2016-Jan-29 18:33S 23°60' W 046°18'2 1.7
2016-Jan-29 17:33S 23°58' W 046°18'0 0.0
2016-Jan-29 16:33S 23°58' W 046°18'0 0.0
2016-Jan-29 15:34S 23°58' W 046°18'0 0.0
2016-Jan-29 14:33S 23°58' W 046°18'0 0.0
2016-Jan-29 13:15S 23°58' W 046°18'0 0.0
2016-Jan-29 12:15S 23°58' W 046°18'0 0.0
2016-Jan-29 11:21S 23°58' W 046°18'0 0.0
2016-Jan-29 10:10S 23°58' W 046°18'0 0.0
2016-Jan-29 09:09S 23°58' W 046°18'0 0.0
2016-Jan-29 08:34S 23°58' W 046°18'3 2.9
2016-Jan-29 07:33S 24°00' W 046°20'9 9.1
2016-Jan-29 06:33S 24°05' W 046°12'10 9.1
2016-Jan-29 05:29S 24°06' W 046°01'0 0.5
2016-Jan-29 04:33S 24°06' W 046°01'0 0.4
2016-Jan-29 03:33S 24°06' W 046°00'3 2.9
2016-Jan-29 02:33S 24°09' W 045°59'10 9.3
2016-Jan-29 01:30S 24°18' W 045°54'  

Dump ship's entire track history